Time;durP1;ratioP1;P1;durP2;ratioP2;P2;SDS_P1;SDS_P2;PMS_P1;PMS_P2;Temp;Humidity;BMP_temperature;BMP_pressure;BME280_temperature;BME280_humidity;BME280_pressure;Samples;Min_cycle;Max_cycle;Signal;HPM_P1;HPM_P2
2022/11/29 00:01:10;;;;;;;10.20;7.60;;;21.00;40.40;;;;;;4988921;28;20483;-63
2022/11/29 00:03:37;;;;;;;8.80;7.00;;;21.00;40.40;;;;;;4989455;28;20050;-63
2022/11/29 00:06:08;;;;;;;9.70;7.10;;;21.00;40.40;;;;;;4989851;28;20116;-63
2022/11/29 00:08:36;;;;;;;10.25;7.10;;;21.00;40.40;;;;;;4989196;28;20399;-63
2022/11/29 00:11:05;;;;;;;8.95;6.72;;;21.00;40.40;;;;;;4989923;28;20339;-63
2022/11/29 00:13:33;;;;;;;8.97;6.77;;;20.90;40.30;;;;;;4988144;28;20523;-63
2022/11/29 00:16:06;;;;;;;9.18;6.60;;;20.90;40.40;;;;;;4989838;28;20291;-63
2022/11/29 00:18:33;;;;;;;9.75;7.20;;;20.90;40.30;;;;;;4988994;28;20442;-63
2022/11/29 00:21:05;;;;;;;9.15;6.82;;;20.90;40.30;;;;;;4987417;28;20065;-63
2022/11/29 00:23:32;;;;;;;10.93;7.75;;;20.90;40.40;;;;;;4989669;28;20061;-63
2022/11/29 00:26:04;;;;;;;9.00;6.65;;;20.90;40.40;;;;;;5008450;28;20484;-63
2022/11/29 00:28:32;;;;;;;8.98;6.93;;;20.90;40.40;;;;;;5008646;28;20498;-63
2022/11/29 00:30:59;;;;;;;8.32;6.10;;;20.90;40.40;;;;;;5008878;28;20054;-63
2022/11/29 00:33:27;;;;;;;9.27;7.03;;;20.90;40.40;;;;;;5008974;28;20536;-63
2022/11/29 00:35:54;;;;;;;9.95;6.75;;;20.90;40.40;;;;;;5008817;28;20050;-63
2022/11/29 00:38:21;;;;;;;9.15;6.65;;;20.90;40.40;;;;;;4990574;28;20050;-63
2022/11/29 00:40:51;;;;;;;9.07;7.13;;;20.90;40.40;;;;;;5009026;28;20298;-63
2022/11/29 00:43:18;;;;;;;9.57;7.03;;;20.90;40.30;;;;;;5007591;28;20057;-63
2022/11/29 00:45:45;;;;;;;9.27;6.70;;;20.90;40.30;;;;;;5008757;28;20065;-63
2022/11/29 00:48:12;;;;;;;9.48;7.13;;;20.90;40.30;;;;;;4990085;28;20073;-63
2022/11/29 00:50:40;;;;;;;9.35;6.78;;;20.90;40.30;;;;;;5008053;28;20540;-63
2022/11/29 00:53:07;;;;;;;8.48;6.20;;;20.90;40.30;;;;;;5008582;28;20046;-63
2022/11/29 00:55:34;;;;;;;8.52;6.35;;;20.90;40.30;;;;;;5007974;28;20049;-63
2022/11/29 00:58:01;;;;;;;10.63;6.65;;;20.90;40.20;;;;;;5004158;28;20054;-64
2022/11/29 01:00:28;;;;;;;8.60;6.60;;;20.90;40.20;;;;;;5008321;28;20479;-63
2022/11/29 01:02:55;;;;;;;8.20;6.63;;;20.90;40.20;;;;;;5007755;28;20050;-63
2022/11/29 01:05:22;;;;;;;8.77;6.60;;;20.90;40.20;;;;;;5007801;28;20050;-63
2022/11/29 01:07:49;;;;;;;8.95;6.60;;;20.90;40.30;;;;;;5007743;28;20065;-63
2022/11/29 01:10:17;;;;;;;11.00;6.97;;;20.90;40.20;;;;;;5008185;28;20049;-63
2022/11/29 01:12:44;;;;;;;8.80;6.00;;;20.90;40.20;;;;;;5007849;28;20050;-63
2022/11/29 01:15:11;;;;;;;11.43;7.70;;;20.90;40.20;;;;;;5007509;28;20042;-63
2022/11/29 01:17:39;;;;;;;8.65;6.05;;;20.90;40.20;;;;;;5008542;28;20151;-63
2022/11/29 01:20:09;;;;;;;8.85;6.43;;;20.90;40.30;;;;;;5008097;28;20058;-63
2022/11/29 01:22:37;;;;;;;8.70;6.60;;;20.80;40.20;;;;;;4991331;28;20057;-63
2022/11/29 01:25:06;;;;;;;8.65;6.10;;;20.80;40.30;;;;;;5008258;28;20053;-63
2022/11/29 01:27:33;;;;;;;9.00;6.68;;;20.80;40.30;;;;;;5008171;28;20393;-63
2022/11/29 01:30:00;;;;;;;9.82;7.43;;;20.80;40.30;;;;;;5005740;28;20713;-63
2022/11/29 01:32:27;;;;;;;7.63;5.97;;;20.80;40.80;;;;;;5006049;28;20448;-63
2022/11/29 01:34:54;;;;;;;8.13;6.03;;;20.80;40.20;;;;;;5007071;28;20050;-63
2022/11/29 01:37:21;;;;;;;10.30;7.47;;;20.80;40.20;;;;;;5007946;28;20497;-63
2022/11/29 01:39:48;;;;;;;9.88;7.05;;;20.80;40.20;;;;;;5007933;28;20068;-63
2022/11/29 01:42:15;;;;;;;8.10;6.47;;;20.80;40.20;;;;;;4990387;28;20540;-63
2022/11/29 01:45:01;;;;;;;9.43;6.68;;;20.80;40.20;;;;;;5007760;28;20451;-63
2022/11/29 01:47:29;;;;;;;9.18;6.28;;;20.80;40.20;;;;;;5007556;28;20046;-63
2022/11/29 01:49:56;;;;;;;9.75;7.18;;;20.80;40.20;;;;;;5007476;28;20050;-63
2022/11/29 01:52:27;;;;;;;9.50;7.05;;;20.80;40.30;;;;;;5007680;28;20053;-63
2022/11/29 01:55:01;;;;;;;8.98;6.35;;;20.80;40.30;;;;;;5008004;28;20046;-63
2022/11/29 01:57:29;;;;;;;10.05;6.80;;;20.80;40.30;;;;;;5007015;28;20057;-63
2022/11/29 02:00:03;;;;;;;8.30;6.93;;;20.80;40.20;;;;;;5010241;28;20046;-63
2022/11/29 02:02:35;;;;;;;9.93;7.32;;;20.80;40.30;;;;;;5011033;28;20050;-63
2022/11/29 02:05:04;;;;;;;8.82;6.30;;;20.80;40.20;;;;;;5009778;28;20395;-63
2022/11/29 02:07:31;;;;;;;8.52;6.38;;;20.70;40.20;;;;;;5009166;28;20058;-63
2022/11/29 02:09:58;;;;;;;8.77;6.88;;;20.70;40.20;;;;;;5010450;28;20108;-63
2022/11/29 02:12:46;;;;;;;7.80;5.95;;;20.80;40.30;;;;;;5010991;28;20060;-63
2022/11/29 02:15:34;;;;;;;8.10;6.45;;;20.70;40.20;;;;;;5010526;28;20054;-64
2022/11/29 02:18:13;;;;;;;8.15;5.93;;;20.70;40.20;;;;;;5011619;28;20057;-63
2022/11/29 02:21:20;;;;;;;8.50;6.30;;;20.70;40.20;;;;;;5010473;28;20510;-63
2022/11/29 02:24:09;;;;;;;9.45;6.30;;;20.70;40.20;;;;;;5011286;28;20056;-63
2022/11/29 02:27:11;;;;;;;8.32;5.95;;;20.70;40.20;;;;;;5010508;28;20057;-63
2022/11/29 02:30:04;;;;;;;9.18;6.78;;;20.70;40.20;;;;;;5011128;28;20048;-63
2022/11/29 02:33:11;;;;;;;9.18;6.63;;;20.70;40.20;;;;;;4993567;28;20252;-63
2022/11/29 02:36:15;;;;;;;9.55;7.35;;;20.70;40.80;;;;;;5010996;28;20514;-63
2022/11/29 02:39:17;;;;;;;8.40;6.85;;;20.70;40.20;;;;;;5008551;28;20038;-63
2022/11/29 02:42:16;;;;;;;7.68;6.18;;;20.70;40.20;;;;;;4977223;28;20045;-63
2022/11/29 02:45:15;;;;;;;8.63;6.53;;;20.70;40.20;;;;;;5009736;28;20549;-63
2022/11/29 02:48:06;;;;;;;8.32;6.70;;;20.70;40.20;;;;;;5010887;28;20064;-63
2022/11/29 02:51:09;;;;;;;9.13;6.28;;;20.70;40.20;;;;;;5010634;28;20653;-63
2022/11/29 02:54:00;;;;;;;8.98;6.63;;;20.70;40.20;;;;;;5009984;28;20508;-63
2022/11/29 02:56:43;;;;;;;8.18;6.80;;;20.70;40.20;;;;;;4993414;28;20421;-63
2022/11/29 02:59:42;;;;;;;8.60;6.28;;;20.70;40.20;;;;;;5010271;28;20488;-63
2022/11/29 03:02:36;;;;;;;7.72;5.95;;;20.70;40.20;;;;;;4995467;28;20444;-63
2022/11/29 03:05:29;;;;;;;8.90;6.50;;;20.70;40.20;;;;;;5009977;28;20054;-63
2022/11/29 03:08:36;;;;;;;7.70;5.82;;;20.70;40.20;;;;;;4990852;28;20122;-63
2022/11/29 03:11:35;;;;;;;7.97;6.43;;;20.70;40.20;;;;;;4990056;28;20195;-63
2022/11/29 03:14:23;;;;;;;11.00;6.43;;;20.70;40.10;;;;;;4985665;28;20527;-63
2022/11/29 03:17:24;;;;;;;7.45;5.78;;;20.70;40.10;;;;;;4990409;28;20054;-63
2022/11/29 03:20:18;;;;;;;8.10;5.78;;;20.70;40.10;;;;;;4990547;28;20100;-63
2022/11/29 03:23:22;;;;;;;7.43;6.00;;;20.60;40.00;;;;;;4972941;28;20054;-63
2022/11/29 03:25:58;;;;;;;7.97;5.97;;;20.70;40.60;;;;;;4989942;28;20046;-63
2022/11/29 03:28:36;;;;;;;6.07;5.47;;;20.60;40.10;;;;;;4990241;28;20051;-63
2022/11/29 03:31:32;;;;;;;7.63;5.68;;;20.70;40.10;;;;;;4990685;28;20052;-63
2022/11/29 03:34:20;;;;;;;9.07;6.35;;;20.60;40.00;;;;;;4989492;28;20050;-63
2022/11/29 03:37:18;;;;;;;6.95;5.80;;;20.60;40.60;;;;;;4990048;28;20066;-63
2022/11/29 03:40:07;;;;;;;7.05;5.45;;;20.60;40.00;;;;;;4989965;28;20050;-63
2022/11/29 03:42:57;;;;;;;7.00;5.60;;;20.60;40.00;;;;;;4989896;28;20057;-63
2022/11/29 03:45:31;;;;;;;;;;;20.60;40.00;;;;;;4985174;28;20515;-63
2022/11/29 03:48:26;;;;;;;6.53;5.25;;;20.60;40.00;;;;;;4989805;28;19925;-63
2022/11/29 03:50:58;;;;;;;7.43;5.78;;;20.60;40.00;;;;;;4989541;28;20046;-63
2022/11/29 03:53:56;;;;;;;9.93;5.88;;;20.60;40.00;;;;;;4989240;28;20054;-62
2022/11/29 03:56:33;;;;;;;7.00;5.38;;;20.60;40.00;;;;;;5005352;28;20049;-62
2022/11/29 03:59:25;;;;;;;6.65;5.18;;;20.60;40.00;;;;;;5009156;28;20060;-62
2022/11/29 04:02:31;;;;;;;8.13;5.63;;;20.60;40.00;;;;;;4994042;28;20056;-63
2022/11/29 04:05:20;;;;;;;7.53;5.78;;;20.60;40.50;;;;;;4983655;28;20077;-63
2022/11/29 04:08:15;;;;;;;8.77;6.07;;;20.60;40.00;;;;;;5009000;28;20228;-63
2022/11/29 04:11:13;;;;;;;6.68;5.55;;;20.60;40.00;;;;;;5008874;28;20447;-63
2022/11/29 04:14:12;;;;;;;7.43;5.32;;;20.60;40.00;;;;;;5009156;28;20050;-63
2022/11/29 04:17:19;;;;;;;7.75;6.45;;;20.60;39.90;;;;;;4996177;28;20053;-62
2022/11/29 04:20:19;;;;;;;6.40;5.28;;;20.60;39.90;;;;;;5004630;28;20440;-62
2022/11/29 04:23:26;;;;;;;8.07;5.28;;;20.50;39.90;;;;;;4993347;28;20041;-63
2022/11/29 04:26:32;;;;;;;7.43;5.63;;;20.60;39.90;;;;;;5008540;28;20041;-63
2022/11/29 04:29:40;;;;;;;6.57;5.10;;;20.60;39.90;;;;;;4994414;28;20092;-63
2022/11/29 04:32:41;;;;;;;6.18;5.35;;;20.50;39.90;;;;;;5008402;28;20431;-63
2022/11/29 04:35:37;;;;;;;6.13;5.05;;;20.50;39.90;;;;;;4991039;28;20056;-63
2022/11/29 04:38:40;;;;;;;7.43;5.40;;;20.50;39.90;;;;;;5008000;28;20061;-63
2022/11/29 04:41:39;;;;;;;7.55;5.72;;;20.50;39.90;;;;;;5008558;28;20301;-63
2022/11/29 04:44:36;;;;;;;7.27;5.33;;;20.50;39.90;;;;;;5006900;28;20053;-63
2022/11/29 04:47:34;;;;;;;6.47;5.13;;;20.50;39.90;;;;;;5007385;28;20049;-62
2022/11/29 04:50:28;;;;;;;7.32;5.68;;;20.50;39.90;;;;;;5007997;28;20129;-63
2022/11/29 04:53:19;;;;;;;7.25;5.15;;;20.50;39.90;;;;;;4993541;28;20046;-63
2022/11/29 04:56:06;;;;;;;7.78;5.65;;;20.50;39.90;;;;;;5003538;28;20132;-63
2022/11/29 04:59:00;;;;;;;7.35;5.25;;;20.50;39.90;;;;;;5007085;28;20398;-63
2022/11/29 05:02:06;;;;;;;7.00;5.70;;;20.50;39.90;;;;;;5007279;28;20048;-63
2022/11/29 05:05:05;;;;;;;6.45;5.07;;;20.50;39.90;;;;;;4993024;28;20455;-63
2022/11/29 05:08:01;;;;;;;8.00;5.22;;;20.50;39.90;;;;;;5008086;28;20496;-63
2022/11/29 05:10:59;;;;;;;8.07;6.05;;;20.50;39.90;;;;;;5008499;28;20050;-63
2022/11/29 05:14:00;;;;;;;6.55;5.25;;;20.50;39.90;;;;;;5008075;28;20057;-63
2022/11/29 05:17:07;;;;;;;7.40;5.90;;;20.50;39.90;;;;;;4992872;28;20480;-62
2022/11/29 05:20:14;;;;;;;7.20;5.57;;;20.50;39.90;;;;;;5006285;28;20046;-63
2022/11/29 05:23:21;;;;;;;5.75;5.15;;;20.50;39.80;;;;;;5006991;28;20491;-63
2022/11/29 05:26:11;;;;;;;7.22;6.00;;;20.50;39.80;;;;;;5006394;28;20516;-63
2022/11/29 05:29:00;;;;;;;8.15;5.50;;;20.50;39.80;;;;;;4961522;28;20054;-62
2022/11/29 05:31:52;;;;;;;6.93;5.32;;;20.50;39.80;;;;;;4988368;28;20046;-63
2022/11/29 05:34:44;;;;;;;8.52;6.53;;;20.50;39.70;;;;;;4997940;28;20049;-63
2022/11/29 05:37:43;;;;;;;8.50;6.53;;;20.50;39.70;;;;;;5010698;28;20123;-63
2022/11/29 05:40:44;;;;;;;8.40;6.20;;;20.50;39.40;;;;;;4989855;28;20045;-63
2022/11/29 05:43:45;;;;;;;8.70;6.70;;;20.60;39.30;;;;;;5008761;28;20065;-63
2022/11/29 05:46:29;;;;;;;8.90;6.40;;;20.60;39.20;;;;;;4994275;28;20049;-63
2022/11/29 05:49:22;;;;;;;8.73;6.45;;;20.50;39.20;;;;;;5008158;28;20133;-63
2022/11/29 05:52:05;;;;;;;8.55;6.78;;;20.50;39.20;;;;;;5009996;28;20050;-64
2022/11/29 05:54:43;;;;;;;10.65;7.05;;;20.50;39.30;;;;;;5010374;28;20426;-63
2022/11/29 05:57:28;;;;;;;8.85;6.35;;;20.50;39.30;;;;;;5010024;28;20479;-63
2022/11/29 05:59:57;;;;;;;8.98;6.85;;;20.50;39.30;;;;;;5011920;28;20050;-63
2022/11/29 06:02:56;;;;;;;7.25;5.95;;;20.50;39.30;;;;;;5005829;28;20407;-63
2022/11/29 06:05:46;;;;;;;8.40;6.20;;;20.50;39.20;;;;;;4993681;28;20478;-63
2022/11/29 06:08:40;;;;;;;8.50;6.07;;;20.50;39.20;;;;;;5011332;28;20049;-63
2022/11/29 06:11:27;;;;;;;7.90;6.03;;;20.60;39.20;;;;;;4994943;28;20128;-62
2022/11/29 06:14:34;;;;;;;9.65;7.30;;;20.60;39.20;;;;;;5009079;28;20052;-63
2022/11/29 06:17:39;;;;;;;10.73;7.40;;;20.60;39.20;;;;;;4995554;28;20050;-62
2022/11/29 06:20:46;;;;;;;11.38;7.00;;;20.70;39.10;;;;;;4992863;28;20046;-63
2022/11/29 06:23:48;;;;;;;8.35;6.72;;;20.70;39.10;;;;;;4985207;28;20144;-63
2022/11/29 06:26:46;;;;;;;11.10;7.40;;;20.70;39.10;;;;;;5008326;28;20042;-63
2022/11/29 06:29:39;;;;;;;10.32;7.07;;;20.80;39.20;;;;;;5001504;28;20515;-63
2022/11/29 06:32:33;;;;;;;9.02;7.20;;;20.80;39.00;;;;;;5000333;28;20049;-63
2022/11/29 06:35:06;;;;;;;9.43;6.88;;;20.80;39.00;;;;;;5007319;28;20046;-63
2022/11/29 06:37:47;;;;;;;9.63;6.72;;;20.90;38.90;;;;;;5003837;28;20061;-62
2022/11/29 06:40:16;;;;;;;11.55;7.90;;;21.00;38.90;;;;;;4999757;28;20057;-68
2022/11/29 06:42:43;;;;;;;9.95;7.30;;;21.00;38.90;;;;;;4999213;28;20056;-66
2022/11/29 06:45:13;;;;;;;13.60;7.57;;;21.00;38.90;;;;;;4999333;28;20145;-67
2022/11/29 06:47:48;;;;;;;10.27;6.88;;;21.10;38.80;;;;;;4997679;28;20152;-67
2022/11/29 06:50:46;;;;;;;13.85;8.13;;;21.10;38.90;;;;;;4997970;28;20046;-68
2022/11/29 06:53:41;;;;;;;8.40;6.32;;;21.10;39.20;;;;;;5006025;28;20499;-67
2022/11/29 06:56:39;;;;;;;8.05;6.28;;;21.20;39.40;;;;;;4987223;28;20042;-66
2022/11/29 06:59:33;;;;;;;12.27;7.45;;;21.30;39.50;;;;;;4982768;28;20141;-67
2022/11/29 07:02:30;;;;;;;9.02;7.00;;;21.40;39.50;;;;;;4999575;28;20045;-69
2022/11/29 07:05:23;;;;;;;12.18;7.05;;;21.40;39.10;;;;;;4983163;28;20065;-68
2022/11/29 07:07:54;;;;;;;11.63;6.85;;;21.50;39.00;;;;;;4998538;28;20046;-68
2022/11/29 07:10:22;;;;;;;13.23;7.40;;;21.50;39.20;;;;;;4994060;28;20049;-66
2022/11/29 07:12:50;;;;;;;14.40;7.07;;;21.50;39.40;;;;;;4994985;28;20050;-67
2022/11/29 07:15:21;;;;;;;10.07;7.20;;;21.60;39.60;;;;;;4999314;28;20046;-65
2022/11/29 07:18:14;;;;;;;14.07;6.88;;;21.60;39.50;;;;;;5000054;28;20050;-65
2022/11/29 07:21:06;;;;;;;8.65;6.97;;;21.70;39.50;;;;;;4981964;28;20420;-67
2022/11/29 07:23:52;;;;;;;10.25;7.38;;;21.70;39.40;;;;;;4997437;28;20050;-67
2022/11/29 07:26:49;;;;;;;14.10;7.63;;;21.80;39.70;;;;;;4999338;28;20048;-66
2022/11/29 07:30:04;;;;;;;12.52;6.75;;;21.80;39.60;;;;;;5000314;28;20053;-68
2022/11/29 07:33:01;;;;;;;10.45;7.35;;;21.90;39.70;;;;;;4999078;28;20507;-69
2022/11/29 07:35:36;;;;;;;10.23;7.28;;;22.00;39.60;;;;;;5000218;28;20046;-69
2022/11/29 07:38:24;;;;;;;13.73;7.53;;;22.10;39.50;;;;;;5000438;28;20038;-66
2022/11/29 07:41:14;;;;;;;9.88;7.10;;;22.10;39.30;;;;;;4979172;28;20353;-66
2022/11/29 07:44:15;;;;;;;13.80;7.97;;;22.10;38.90;;;;;;4994166;28;20488;-66
2022/11/29 07:46:43;;;;;;;14.95;7.97;;;22.20;38.50;;;;;;4999366;28;20057;-66
2022/11/29 07:49:11;;;;;;;12.73;8.40;;;22.20;38.20;;;;;;5000937;28;20053;-66
2022/11/29 07:51:38;;;;;;;11.00;7.60;;;22.30;38.00;;;;;;5000858;28;20476;-66
2022/11/29 07:54:05;;;;;;;12.90;7.57;;;22.20;37.90;;;;;;4998349;28;20085;-66
2022/11/29 07:56:32;;;;;;;10.77;7.93;;;22.30;37.80;;;;;;4998002;28;20045;-66
2022/11/29 07:59:00;;;;;;;13.93;8.30;;;22.30;37.70;;;;;;4997622;28;20504;-67
2022/11/29 08:01:27;;;;;;;9.63;7.88;;;22.30;37.60;;;;;;5000771;28;20049;-66
2022/11/29 08:03:54;;;;;;;14.20;7.90;;;22.30;37.70;;;;;;4995406;28;20091;-65
2022/11/29 08:06:25;;;;;;;11.88;8.23;;;22.30;37.70;;;;;;5001142;28;20050;-66
2022/11/29 08:08:52;;;;;;;16.58;7.60;;;22.30;37.70;;;;;;4999666;28;20069;-65
2022/11/29 08:11:19;;;;;;;11.10;8.52;;;22.40;37.90;;;;;;5000710;28;20150;-67
2022/11/29 08:13:46;;;;;;;12.20;8.32;;;22.40;38.00;;;;;;4993064;28;20046;-67
2022/11/29 08:16:17;;;;;;;10.77;7.82;;;22.40;38.00;;;;;;4997223;28;20290;-67
2022/11/29 08:18:45;;;;;;;12.90;7.95;;;22.40;38.00;;;;;;4981663;28;20054;-67
2022/11/29 08:21:16;;;;;;;14.85;9.75;;;22.40;38.00;;;;;;4999704;28;20053;-67
2022/11/29 08:23:48;;;;;;;11.30;8.45;;;22.40;37.90;;;;;;4999550;28;20090;-67
2022/11/29 08:26:17;;;;;;;12.00;8.25;;;22.40;38.00;;;;;;4999996;28;20050;-69
2022/11/29 08:28:44;;;;;;;11.23;7.47;;;22.50;37.90;;;;;;4998991;28;20412;-66
2022/11/29 08:31:12;;;;;;;9.45;7.53;;;22.50;37.80;;;;;;4999325;28;20128;-66
2022/11/29 08:33:41;;;;;;;12.13;9.20;;;22.50;37.80;;;;;;4995058;28;20080;-66
2022/11/29 08:36:15;;;;;;;13.50;8.35;;;22.50;37.70;;;;;;4978582;28;20050;-67
2022/11/29 08:38:43;;;;;;;12.23;8.40;;;22.60;37.80;;;;;;4999137;28;20104;-66
2022/11/29 08:41:12;;;;;;;10.50;8.07;;;22.60;37.80;;;;;;4999039;28;20057;-69
2022/11/29 08:43:40;;;;;;;10.45;8.18;;;22.60;37.80;;;;;;4996554;28;20061;-66
2022/11/29 08:46:07;;;;;;;13.15;9.00;;;22.70;37.70;;;;;;4997252;28;20050;-67
2022/11/29 08:48:41;;;;;;;11.85;8.23;;;22.70;37.60;;;;;;5000084;28;20050;-68
2022/11/29 08:51:08;;;;;;;9.73;7.28;;;22.70;37.50;;;;;;4997706;28;20037;-66
2022/11/29 08:53:41;;;;;;;12.07;7.75;;;22.80;37.50;;;;;;4994178;28;20058;-66
2022/11/29 08:56:11;;;;;;;12.05;8.52;;;22.80;37.40;;;;;;4998204;28;20133;-65
2022/11/29 08:58:58;;;;;;;12.02;7.95;;;22.80;37.30;;;;;;4996392;28;20518;-65
2022/11/29 09:01:27;;;;;;;10.65;7.93;;;22.90;37.30;;;;;;4998872;28;20062;-68
2022/11/29 09:03:58;;;;;;;13.40;8.52;;;22.90;37.20;;;;;;4995527;28;20060;-67
2022/11/29 09:06:26;;;;;;;;;;;23.00;37.30;;;;;;4980676;28;20419;-69
2022/11/29 09:08:57;;;;;;;11.93;8.18;;;23.00;37.40;;;;;;4998474;28;20300;-67
2022/11/29 09:11:27;;;;;;;10.20;7.50;;;23.00;37.40;;;;;;5005297;28;20077;-66
2022/11/29 09:14:00;;;;;;;10.23;8.03;;;23.00;37.30;;;;;;5006694;28;20227;-67
2022/11/29 09:16:31;;;;;;;11.93;7.97;;;23.10;37.20;;;;;;4985484;28;20423;-67
2022/11/29 09:18:59;;;;;;;12.48;7.70;;;23.10;37.10;;;;;;5004000;28;20077;-67
2022/11/29 09:21:28;;;;;;;11.20;7.95;;;23.20;37.00;;;;;;5002880;28;20415;-67
2022/11/29 09:24:00;;;;;;;10.50;7.82;;;23.20;36.90;;;;;;4998812;28;20496;-66
2022/11/29 09:26:31;;;;;;;11.20;7.88;;;23.10;37.00;;;;;;5002370;28;20141;-67
2022/11/29 09:29:00;;;;;;;11.80;7.70;;;23.20;37.40;;;;;;5002040;28;20050;-67
2022/11/29 09:31:29;;;;;;;11.35;8.00;;;23.20;37.40;;;;;;4986752;28;20050;-67
2022/11/29 09:33:57;;;;;;;13.20;8.63;;;23.20;37.40;;;;;;4987483;28;20495;-67
2022/11/29 09:36:24;;;;;;;11.90;7.13;;;23.30;37.50;;;;;;5002240;28;20046;-68
2022/11/29 09:38:55;;;;;;;10.40;7.45;;;23.30;37.40;;;;;;5001544;28;20485;-64
2022/11/29 09:41:39;;;;;;;12.13;8.32;;;23.30;37.40;;;;;;5003417;28;20512;-65
2022/11/29 09:44:26;;;;;;;10.82;6.88;;;23.30;37.40;;;;;;5007374;28;20045;-65
2022/11/29 09:47:17;;;;;;;9.75;7.25;;;23.30;37.40;;;;;;4984414;28;20050;-64
2022/11/29 09:50:23;;;;;;;10.70;7.88;;;23.30;37.30;;;;;;5002786;28;20058;-65
2022/11/29 09:53:17;;;;;;;9.98;7.10;;;23.30;37.40;;;;;;4994375;28;20120;-65
2022/11/29 09:56:08;;;;;;;11.35;8.15;;;23.30;37.50;;;;;;5000082;28;20133;-64
2022/11/29 09:59:03;;;;;;;10.45;7.45;;;23.40;37.50;;;;;;5005002;28;20668;-65
2022/11/29 10:01:38;;;;;;;10.43;7.45;;;23.40;37.30;;;;;;5005699;28;20053;-67
2022/11/29 10:04:13;;;;;;;10.75;8.13;;;23.30;37.20;;;;;;5003985;28;20492;-64
2022/11/29 10:07:05;;;;;;;10.98;7.72;;;23.40;37.30;;;;;;5004915;28;20053;-64
2022/11/29 10:09:55;;;;;;;11.63;8.50;;;23.40;37.20;;;;;;5004847;28;20058;-64
2022/11/29 10:12:35;;;;;;;10.48;7.57;;;23.40;37.20;;;;;;5005321;28;20514;-65
2022/11/29 10:15:17;;;;;;;14.13;8.35;;;23.40;37.10;;;;;;5005330;28;20077;-66
2022/11/29 10:17:57;;;;;;;10.80;7.60;;;23.40;37.00;;;;;;4985665;28;20420;-66
2022/11/29 10:20:26;;;;;;;;;;;23.40;36.80;;;;;;5000584;28;20056;-67
2022/11/29 10:23:01;;;;;;;9.73;7.53;;;23.40;36.50;;;;;;4999849;28;19943;-66
2022/11/29 10:25:41;;;;;;;11.75;8.40;;;23.50;36.40;;;;;;4997212;28;20049;-64
2022/11/29 10:28:14;;;;;;;12.25;8.02;;;23.50;36.50;;;;;;4992039;28;20502;-64
2022/11/29 10:30:42;;;;;;;10.73;7.75;;;23.50;36.60;;;;;;4985480;28;20407;-64
2022/11/29 10:33:24;;;;;;;13.38;7.85;;;23.60;36.60;;;;;;4981566;28;20456;-66
2022/11/29 10:35:56;;;;;;;10.52;7.88;;;23.60;36.70;;;;;;5002467;28;20137;-64
2022/11/29 10:38:23;;;;;;;10.70;7.55;;;23.60;36.70;;;;;;5001548;28;20496;-63
2022/11/29 10:41:06;;;;;;;9.05;7.22;;;23.60;36.80;;;;;;4999698;28;20050;-64
2022/11/29 10:43:36;;;;;;;9.95;7.18;;;23.60;36.70;;;;;;5003029;28;20104;-65
2022/11/29 10:46:12;;;;;;;8.68;7.40;;;23.60;36.70;;;;;;4999660;28;20054;-63
2022/11/29 10:48:39;;;;;;;9.23;7.22;;;23.60;36.60;;;;;;5002118;28;20554;-67
2022/11/29 10:51:15;;;;;;;10.07;7.75;;;23.60;36.60;;;;;;4986476;28;20511;-65
2022/11/29 10:53:45;;;;;;;8.35;6.85;;;23.70;36.70;;;;;;4985421;28;20133;-67
2022/11/29 10:56:25;;;;;;;10.35;7.63;;;23.70;37.20;;;;;;5001630;28;20042;-65
2022/11/29 10:59:04;;;;;;;9.90;7.47;;;23.70;36.70;;;;;;5000251;28;20050;-65
2022/11/29 11:01:35;;;;;;;12.75;7.70;;;23.70;36.80;;;;;;4999983;28;20085;-66
2022/11/29 11:04:08;;;;;;;9.07;7.38;;;23.70;36.50;;;;;;5002013;28;20050;-64
2022/11/29 11:06:47;;;;;;;9.85;7.75;;;23.70;36.20;;;;;;4993915;28;20053;-64
2022/11/29 11:09:23;;;;;;;8.95;7.18;;;23.80;36.10;;;;;;4976981;28;20068;-66
2022/11/29 11:11:53;;;;;;;12.60;7.50;;;23.80;36.10;;;;;;4997720;28;20057;-65
2022/11/29 11:14:25;;;;;;;;;;;23.80;36.20;;;;;;5002327;28;20137;-65
2022/11/29 11:16:52;;;;;;;12.68;7.55;;;23.80;36.10;;;;;;4996589;28;19929;-65
2022/11/29 11:19:31;;;;;;;12.50;7.95;;;23.80;36.00;;;;;;4999788;28;20054;-65
2022/11/29 11:22:01;;;;;;;9.98;7.13;;;23.80;35.90;;;;;;4967708;28;20522;-65
2022/11/29 11:24:35;;;;;;;9.95;7.15;;;23.80;35.80;;;;;;5000752;28;20050;-65
2022/11/29 11:27:03;;;;;;;11.60;7.07;;;23.80;35.80;;;;;;4998291;28;20523;-65
2022/11/29 11:29:37;;;;;;;11.43;7.18;;;23.80;35.70;;;;;;5001908;28;20104;-65
2022/11/29 11:32:15;;;;;;;12.85;7.70;;;23.80;35.70;;;;;;5001363;28;20042;-66
2022/11/29 11:34:54;;;;;;;11.52;8.10;;;23.80;35.60;;;;;;5001188;28;20069;-65
2022/11/29 11:37:34;;;;;;;13.55;7.22;;;23.80;35.60;;;;;;5003729;28;20068;-66
2022/11/29 11:40:27;;;;;;;10.55;6.80;;;23.80;35.60;;;;;;5000982;28;20053;-65
2022/11/29 11:42:58;;;;;;;10.15;7.40;;;23.80;35.50;;;;;;4984333;28;20070;-68
2022/11/29 11:45:34;;;;;;;11.45;7.38;;;23.80;35.70;;;;;;5002350;28;20053;-65
2022/11/29 11:48:12;;;;;;;14.93;7.93;;;23.80;35.50;;;;;;4999556;28;20496;-63
2022/11/29 11:50:50;;;;;;;9.68;7.05;;;23.80;35.70;;;;;;5002256;28;20050;-64
2022/11/29 11:53:28;;;;;;;10.73;7.50;;;23.70;35.60;;;;;;4997444;28;20054;-64
2022/11/29 11:56:02;;;;;;;10.15;7.35;;;23.70;35.60;;;;;;5004428;28;20046;-64
2022/11/29 11:58:34;;;;;;;10.05;7.38;;;23.80;35.70;;;;;;4999591;28;20054;-64
2022/11/29 12:01:29;;;;;;;9.95;7.13;;;23.70;35.60;;;;;;5002866;28;20064;-65
2022/11/29 12:04:25;;;;;;;10.68;7.30;;;23.80;35.70;;;;;;4969918;28;20493;-64
2022/11/29 12:06:57;;;;;;;12.70;7.72;;;23.80;35.70;;;;;;4998441;28;20065;-66
2022/11/29 12:13:05;;;;;;;12.75;7.85;;;23.80;35.70;;;;;;4992903;28;20582;-66
2022/11/29 12:15:37;;;;;;;10.15;6.82;;;23.80;35.60;;;;;;4995200;28;20050;-66
2022/11/29 12:18:15;;;;;;;9.48;7.03;;;23.80;35.60;;;;;;4999554;28;20049;-67
2022/11/29 12:21:05;;;;;;;11.13;7.35;;;23.80;35.70;;;;;;4998980;28;20547;-67
2022/11/29 12:23:48;;;;;;;10.95;7.75;;;23.80;35.80;;;;;;4995628;28;20480;-66
2022/11/29 12:26:32;;;;;;;11.20;7.63;;;23.80;36.30;;;;;;5000061;28;20145;-66
2022/11/29 12:29:21;;;;;;;11.45;7.95;;;23.80;35.70;;;;;;5000395;28;21907;-65
2022/11/29 12:32:29;;;;;;;10.73;7.57;;;23.80;35.70;;;;;;5001808;28;20061;-66
2022/11/29 12:35:22;;;;;;;11.18;7.75;;;23.80;35.80;;;;;;4995687;28;20046;-63
2022/11/29 12:37:58;;;;;;;8.95;6.93;;;23.80;36.10;;;;;;4992286;28;20060;-64
2022/11/29 12:40:43;;;;;;;11.95;7.32;;;23.80;36.30;;;;;;4996383;28;20057;-63
2022/11/29 12:43:49;;;;;;;11.40;7.03;;;23.80;36.40;;;;;;4997168;28;20056;-66
2022/11/29 12:46:28;;;;;;;9.32;7.68;;;23.80;36.40;;;;;;5000133;28;20483;-65
2022/11/29 12:49:14;;;;;;;11.15;7.03;;;23.80;36.40;;;;;;4997822;28;20088;-65
2022/11/29 12:52:01;;;;;;;9.95;7.65;;;23.80;36.40;;;;;;4995349;28;20060;-64
2022/11/29 12:54:49;;;;;;;9.90;7.55;;;23.90;36.50;;;;;;4997876;28;21167;-63
2022/11/29 12:57:41;;;;;;;11.70;7.35;;;23.80;36.50;;;;;;4996907;28;20065;-64
2022/11/29 13:00:13;;;;;;;9.70;7.38;;;23.80;36.50;;;;;;4996107;28;20535;-61
2022/11/29 13:03:19;;;;;;;12.15;7.10;;;23.80;36.40;;;;;;4996071;28;20042;-63
2022/11/29 13:05:58;;;;;;;10.10;7.05;;;23.90;36.30;;;;;;4995617;28;20064;-63
2022/11/29 13:09:01;;;;;;;10.70;7.63;;;23.80;36.00;;;;;;4996669;28;20077;-64
2022/11/29 13:11:35;;;;;;;9.70;7.75;;;23.80;35.80;;;;;;4977185;28;20452;-61
2022/11/29 13:14:22;;;;;;;9.32;7.10;;;23.90;36.00;;;;;;4998979;28;20049;-60
2022/11/29 13:17:38;;;;;;;11.57;6.88;;;23.80;36.20;;;;;;4998460;28;20049;-61
2022/11/29 13:20:35;;;;;;;8.95;7.07;;;23.90;36.40;;;;;;4996277;28;20053;-63
2022/11/29 13:23:28;;;;;;;13.50;8.18;;;23.90;36.40;;;;;;4978211;28;21013;-61
2022/11/29 13:26:16;;;;;;;14.32;7.13;;;23.90;36.30;;;;;;4996212;28;20072;-63
2022/11/29 13:28:45;;;;;;;12.80;7.70;;;23.90;36.50;;;;;;5001830;28;20052;-62
2022/11/29 13:31:18;;;;;;;8.73;6.90;;;23.90;36.40;;;;;;4995948;28;20053;-64
2022/11/29 13:34:02;;;;;;;10.68;7.85;;;23.90;36.40;;;;;;4994933;28;20057;-61
2022/11/29 13:36:55;;;;;;;10.50;7.55;;;23.90;36.30;;;;;;4999819;28;20136;-61
2022/11/29 13:39:54;;;;;;;18.23;7.65;;;23.90;36.30;;;;;;4984095;28;20084;-66
2022/11/29 13:42:50;;;;;;;14.55;7.55;;;23.90;36.40;;;;;;4978120;28;20152;-64
2022/11/29 13:45:39;;;;;;;9.93;6.78;;;23.90;36.40;;;;;;4997512;28;20451;-63
2022/11/29 13:48:47;;;;;;;9.23;7.00;;;23.90;36.40;;;;;;4991028;28;20046;-62
2022/11/29 13:51:36;;;;;;;10.35;7.22;;;23.90;36.40;;;;;;4995102;28;20046;-60
2022/11/29 13:54:28;;;;;;;12.98;7.45;;;23.90;36.40;;;;;;4995670;28;20502;-63
2022/11/29 13:57:08;;;;;;;9.52;6.68;;;23.80;36.50;;;;;;4985137;28;20052;-61
2022/11/29 13:59:37;;;;;;;10.40;6.82;;;23.80;36.60;;;;;;4997473;28;20107;-61
2022/11/29 14:02:29;;;;;;;11.40;7.43;;;23.80;36.60;;;;;;4986144;28;20630;-61